Terminal Aerodrome Forecast
Issued by NWS

Home | Current Version | Previous Version | Text Only | Print | Product List | Glossary On
Versions: 1 2 3 4 5 6 7 8 9 10 11 12 13 14 15 16 17 18 19 20 21 22 23
000
FTUS41 KOKX 180800 AAA
TAFSWF
TAF AMD
KSWF 180839Z 1809/1912 29016G23KT P6SM SCT030 BKN050
      TEMPO 1809/1811 P6SM -SHSN BKN030
     FM181400 29018G26KT P6SM SCT035
     FM182200 29012G18KT P6SM SCT035
     FM190000 30009KT P6SM SCT035
      AMD NOT SKED=

USA.gov is the U.S. government's official web portal to all federal, state and local government web resources and services.